Rain Current Weather (METAR) For London Heathrow Airport

All times on the weather descriptions are local

Observed at 18:50 - (12 mins ago)

Rain

16°C

Rain
Clouds: Scattered Clouds at 3,000ft, Scattered Clouds at 3,400ft, Broken Clouds at 1,200ft
Wind: 220° at 08 knots, varying from 180° to 250
Visibility: Greater than 10km
QNH: 1013
Dew Point: 13°C
Runway in Use: Landing: Runway , Take-Off: Runway

Sunrise Today: 07:40
Sunset Today: 17:51

Forecast Weather (TAF) For London Heathrow Airport

Issued at 01:00 - (6 days 5 hrs ago)


Runway in Use: Likely Runways 27L/R

Forecast valid until 01:00 on Friday

METAR/TAF RAW METAR / TAF

EGLL 241750Z 22008KT 180V250 9999 SCT030 SCT034 16/13 Q1013 TEMPO 4000 RA BKN012

Weather Widget

Put weather from any of our airports on your website with our weather widget.

Find Another Search

Airport Search


Please Wait Please Wait - Loading
Close
Close

Login

Username:

Password:

Remember Me:

Remember me on this computer

Forgotten your password? Get a reset password sent to your registered e-mail address

Close

User Private Message

Subject:

Message: